Time;durP1;ratioP1;P1;durP2;ratioP2;P2;SDS_P1;SDS_P2;PMS_P1;PMS_P2;Temp;Humidity;BMP_temperature;BMP_pressure;BME280_temperature;BME280_humidity;BME280_pressure;Samples;Min_cycle;Max_cycle;Signal;HPM_P1;HPM_P2
2024/01/10 04:59:59;;;;;;;;;;;-5.20;99.90;;;;;;4957939;29;19931;-74
2024/01/10 05:02:25;;;;;;;;;;;-5.20;99.90;;;;;;4957451;29;19926;-74
2024/01/10 05:04:52;;;;;;;;;;;-5.20;99.90;;;;;;4957470;29;19929;-74
2024/01/10 05:07:18;;;;;;;;;;;-5.30;99.90;;;;;;4957407;29;19934;-70
2024/01/10 05:09:45;;;;;;;;;;;-5.20;99.90;;;;;;4956866;28;19934;-71
2024/01/10 05:12:12;;;;;;;;;;;-5.20;99.90;;;;;;4957402;29;19926;-76
2024/01/10 05:14:38;;;;;;;;;;;-5.20;99.90;;;;;;4957167;28;19927;-75
2024/01/10 05:17:07;;;;;;;;;;;-5.10;99.90;;;;;;4957205;29;19927;-75
2024/01/10 05:19:33;;;;;;;;;;;-5.20;99.90;;;;;;4960193;28;19938;-74
2024/01/10 05:22:00;;;;;;;;;;;-5.20;99.90;;;;;;4961088;29;19926;-74
2024/01/10 05:24:27;;;;;;;;;;;-5.10;99.90;;;;;;4960451;29;19934;-75
2024/01/10 05:26:55;;;;;;;;;;;-5.10;99.90;;;;;;4960325;29;20410;-75
2024/01/10 05:29:23;;;;;;;;;;;-5.10;99.90;;;;;;4960910;28;19933;-75
2024/01/10 05:31:50;;;;;;;;;;;-5.10;99.90;;;;;;4961306;29;19926;-75
2024/01/10 05:34:18;;;;;;;;;;;-5.10;99.90;;;;;;4960809;29;20292;-74
2024/01/10 05:36:45;;;;;;;;;;;-5.00;99.90;;;;;;4960573;29;19933;-74
2024/01/10 05:39:11;;;;;;;;;;;-5.00;99.90;;;;;;4959671;28;19927;-73
2024/01/10 05:41:39;;;;;;;;;;;-5.00;99.90;;;;;;4959843;29;19933;-74
2024/01/10 05:44:06;;;;;;;;;;;-5.00;99.90;;;;;;4959047;28;19926;-74
2024/01/10 05:46:33;;;;;;;;;;;-5.00;99.90;;;;;;4958815;29;19933;-74
2024/01/10 05:48:59;;;;;;;;;;;-5.20;99.90;;;;;;4960092;28;19998;-74
2024/01/10 05:51:27;;;;;;;;;;;-5.00;99.90;;;;;;4960363;29;19933;-75
2024/01/10 05:53:54;;;;;;;;;;;-5.00;99.90;;;;;;4958421;29;20420;-74
2024/01/10 05:56:21;;;;;;;;;;;-5.00;99.90;;;;;;4958132;29;19934;-74
2024/01/10 05:58:47;;;;;;;;;;;-4.90;99.90;;;;;;4959789;28;19934;-74
2024/01/10 06:01:14;;;;;;;;;;;-4.90;99.90;;;;;;4959899;29;20391;-75
2024/01/10 06:03:41;;;;;;;;;;;-4.90;99.90;;;;;;4960672;29;19926;-74
2024/01/10 06:06:07;;;;;;;;;;;-4.80;99.90;;;;;;4959804;29;19932;-74
2024/01/10 06:08:36;;;;;;;;;;;-4.80;99.90;;;;;;4959057;28;20299;-74
2024/01/10 06:11:06;;;;;;;;;;;-4.90;99.90;;;;;;4958007;29;19927;-73
2024/01/10 06:13:32;;;;;;;;;;;-4.90;99.90;;;;;;4959735;29;19985;-74
2024/01/10 06:15:59;;;;;;;;;;;-4.80;99.90;;;;;;4958320;29;19931;-74
2024/01/10 06:18:25;;;;;;;;;;;-4.80;99.90;;;;;;4957996;28;19934;-74
2024/01/10 06:20:52;;;;;;;;;;;-4.80;99.90;;;;;;4958829;29;19926;-74
2024/01/10 06:23:19;;;;;;;;;;;-4.70;99.90;;;;;;4957167;29;19926;-74
2024/01/10 06:25:47;;;;;;;;;;;-4.70;99.90;;;;;;4956648;29;19933;-73
2024/01/10 06:28:13;;;;;;;;;;;-4.70;99.90;;;;;;4956365;28;19926;-73
2024/01/10 06:30:40;;;;;;;;;;;-4.70;99.90;;;;;;4956837;29;19926;-74
2024/01/10 06:33:07;;;;;;;;;;;-4.70;99.90;;;;;;4957165;28;19927;-74
2024/01/10 06:35:34;;;;;;;;;;;-4.70;99.90;;;;;;4958055;28;19978;-70
2024/01/10 06:38:03;;;;;;;;;;;-4.80;99.90;;;;;;4968071;28;19926;-71
2024/01/10 06:40:30;;;;;;;;;;;-4.70;99.90;;;;;;4966724;28;19950;-69
2024/01/10 06:42:59;;;;;;;;;;;-4.70;99.90;;;;;;4962630;29;19949;-69
2024/01/10 06:45:27;;;;;;;;;;;-4.70;99.90;;;;;;4957491;29;19926;-69
2024/01/10 06:47:54;;;;;;;;;;;-4.70;99.90;;;;;;4956524;28;19934;-70
2024/01/10 06:50:22;;;;;;;;;;;-4.70;99.90;;;;;;4957622;29;19962;-69
2024/01/10 06:52:49;;;;;;;;;;;-4.70;99.90;;;;;;4956169;29;19930;-72
2024/01/10 06:55:16;;;;;;;;;;;-4.70;99.90;;;;;;4955741;29;19926;-71
2024/01/10 06:57:42;;;;;;;;;;;-4.70;99.90;;;;;;4956148;28;19934;-71
2024/01/10 07:00:11;;;;;;;;;;;-4.70;99.90;;;;;;4955856;29;19927;-71
2024/01/10 07:02:38;;;;;;;;;;;-4.60;99.90;;;;;;4956086;29;19926;-72
2024/01/10 07:05:08;;;;;;;;;;;-4.60;99.90;;;;;;4956015;29;19927;-72
2024/01/10 07:07:35;;;;;;;;;;;-4.50;99.90;;;;;;4955814;28;19937;-71
2024/01/10 07:10:04;;;;;;;;;;;-4.50;99.90;;;;;;4955523;29;19933;-72
2024/01/10 07:12:31;;;;;;;;;;;-4.50;99.90;;;;;;4955969;29;20336;-72
2024/01/10 07:14:58;;;;;;;;;;;-4.50;99.90;;;;;;4955552;29;19933;-71
2024/01/10 07:17:26;;;;;;;;;;;-4.40;99.90;;;;;;4955466;29;19950;-72
2024/01/10 07:19:53;;;;;;;;;;;-4.40;99.90;;;;;;4955588;28;19927;-72
2024/01/10 07:22:19;;;;;;;;;;;-4.40;99.90;;;;;;4956764;29;19926;-71
2024/01/10 07:24:46;;;;;;;;;;;-4.40;99.90;;;;;;4955782;29;19926;-72
2024/01/10 07:27:14;;;;;;;;;;;-4.30;99.90;;;;;;4955509;29;19934;-72
2024/01/10 07:29:41;;;;;;;;;;;-4.30;99.90;;;;;;4955130;28;19987;-71
2024/01/10 07:32:11;;;;;;;;;;;-4.30;99.90;;;;;;4955632;29;19927;-72
2024/01/10 07:34:39;;;;;;;;;;;-4.30;99.90;;;;;;4955054;29;20315;-72
2024/01/10 07:37:05;;;;;;;;;;;-4.40;99.90;;;;;;4955673;28;19934;-71
2024/01/10 07:39:32;;;;;;;;;;;-4.40;99.90;;;;;;4958678;28;19933;-71
2024/01/10 07:41:58;;;;;;;;;;;-4.40;99.90;;;;;;4958614;29;19927;-70
2024/01/10 07:44:26;;;;;;;;;;;-4.40;99.90;;;;;;4958559;29;19933;-70
2024/01/10 07:46:54;;;;;;;;;;;-4.40;99.90;;;;;;4958531;29;19934;-70
2024/01/10 07:49:21;;;;;;;;;;;-4.40;99.90;;;;;;4958012;28;19933;-70
2024/01/10 07:51:49;;;;;;;;;;;-4.40;99.90;;;;;;4958418;29;20013;-70
2024/01/10 07:54:16;;;;;;;;;;;-4.30;99.90;;;;;;4959178;29;19941;-70
2024/01/10 07:56:42;;;;;;;;;;;-4.30;99.90;;;;;;4958403;29;19933;-71
2024/01/10 07:59:09;;;;;;;;;;;-4.30;99.90;;;;;;4958159;28;19941;-70
2024/01/10 08:01:35;;;;;;;;;;;-4.20;99.90;;;;;;4958243;29;19926;-71
2024/01/10 08:04:02;;;;;;;;;;;-4.20;99.90;;;;;;4958267;29;19927;-71
2024/01/10 08:06:28;;;;;;;;;;;-4.20;99.90;;;;;;4958095;29;19933;-71
2024/01/10 08:08:56;;;;;;;;;;;-4.20;99.90;;;;;;4958031;28;19937;-71
2024/01/10 08:11:24;;;;;;;;;;;-4.20;99.90;;;;;;4958060;29;19927;-71
2024/01/10 08:13:51;;;;;;;;;;;-4.20;99.90;;;;;;4958034;29;19993;-71
2024/01/10 08:16:18;;;;;;;;;;;-4.20;99.90;;;;;;4957686;29;19942;-71
2024/01/10 08:18:45;;;;;;;;;;;-4.10;99.90;;;;;;4957826;28;19931;-71
2024/01/10 08:21:11;;;;;;;;;;;-4.10;99.90;;;;;;4957850;29;19927;-71
2024/01/10 08:23:38;;;;;;;;;;;-4.00;99.90;;;;;;4957733;29;20307;-71
2024/01/10 08:26:09;;;;;;;;;;;-3.90;99.90;;;;;;4957521;29;20288;-71
2024/01/10 08:28:35;;;;;;;;;;;-3.90;99.90;;;;;;4957865;28;19993;-70
2024/01/10 08:31:02;;;;;;;;;;;-3.80;99.90;;;;;;4957914;29;19926;-72
2024/01/10 08:33:30;;;;;;;;;;;-3.80;99.90;;;;;;4957729;29;19926;-71
2024/01/10 08:35:56;;;;;;;;;;;-3.70;99.90;;;;;;4957579;29;20021;-71
2024/01/10 08:38:23;;;;;;;;;;;-3.60;99.90;;;;;;4957505;28;19927;-71
2024/01/10 08:40:50;;;;;;;;;;;-3.60;99.90;;;;;;4957712;29;19934;-71
2024/01/10 08:43:18;;;;;;;;;;;-3.50;99.90;;;;;;4957778;29;19926;-71
2024/01/10 08:45:45;;;;;;;;;;;-3.50;99.90;;;;;;4961977;28;19930;-70
2024/01/10 08:48:13;;;;;;;;;;;-3.50;99.90;;;;;;4964457;28;19926;-71
2024/01/10 08:50:39;;;;;;;;;;;-3.40;99.90;;;;;;4965894;29;19973;-71
2024/01/10 08:53:06;;;;;;;;;;;-3.50;99.90;;;;;;4965730;29;19933;-70
2024/01/10 08:55:36;;;;;;;;;;;-3.50;99.90;;;;;;4961131;28;21436;-70
2024/01/10 08:58:03;;;;;;;;;;;-3.40;99.90;;;;;;4962907;28;20388;-71
2024/01/10 09:00:31;;;;;;;;;;;-3.30;99.90;;;;;;4961086;29;20423;-71
2024/01/10 09:02:58;;;;;;;;;;;-3.30;99.90;;;;;;4958417;29;19941;-71
2024/01/10 09:05:24;;;;;;;;;;;-3.20;99.90;;;;;;4958974;29;20273;-71
2024/01/10 09:07:51;;;;;;;;;;;-3.10;99.90;;;;;;4958824;28;19931;-71
2024/01/10 09:10:18;;;;;;;;;;;-3.00;99.90;;;;;;4957756;29;20376;-72
2024/01/10 09:12:46;;;;;;;;;;;-3.00;99.90;;;;;;4958374;29;19937;-71
2024/01/10 09:15:13;;;;;;;;;;;-3.00;99.90;;;;;;4957659;29;19985;-72
2024/01/10 09:17:41;;;;;;;;;;;-3.10;99.90;;;;;;4956824;28;19951;-72
2024/01/10 09:20:08;;;;;;;;;;;-3.00;99.90;;;;;;4956485;29;20403;-72
2024/01/10 09:22:35;;;;;;;;;;;-3.00;99.90;;;;;;4956340;29;20311;-71
2024/01/10 09:25:04;;;;;;;;;;;-3.00;99.90;;;;;;4956697;29;19926;-71
2024/01/10 09:27:30;;;;;;;;;;;-3.00;99.90;;;;;;4956604;28;19932;-71
2024/01/10 09:29:57;;;;;;;;;;;-2.90;99.90;;;;;;4956672;29;19931;-71
2024/01/10 09:32:24;;;;;;;;;;;-2.80;99.90;;;;;;4956673;29;20003;-71
2024/01/10 09:34:52;;;;;;;;;;;-2.80;99.90;;;;;;4956514;29;19927;-71
2024/01/10 09:37:18;;;;;;;;;;;-2.80;99.90;;;;;;4956552;29;19931;-72
2024/01/10 09:39:45;;;;;;;;;;;-2.80;99.90;;;;;;4956307;28;19934;-72
2024/01/10 09:42:11;;;;;;;;;;;-2.80;99.90;;;;;;4956413;29;19926;-72
2024/01/10 09:44:38;;;;;;;;;;;-2.70;99.90;;;;;;4956393;29;19927;-72
2024/01/10 09:47:05;;;;;;;;;;;-2.70;99.90;;;;;;4956357;29;19931;-72
2024/01/10 09:49:32;;;;;;;;;;;-2.80;99.90;;;;;;4955945;28;20274;-72
2024/01/10 09:52:00;;;;;;;;;;;-2.90;99.90;;;;;;4956258;29;19935;-72
2024/01/10 09:54:27;;;;;;;;;;;-2.90;99.90;;;;;;4956168;29;19926;-72
2024/01/10 09:56:55;;;;;;;;;;;-2.90;99.90;;;;;;4956355;29;19927;-72
2024/01/10 09:59:22;;;;;;;;;;;-2.80;99.90;;;;;;4956199;28;19931;-72
2024/01/10 10:01:48;;;;;;;;;;;-2.80;99.90;;;;;;4955781;29;19930;-72
2024/01/10 10:04:16;;;;;;;;;;;-2.80;99.90;;;;;;4959762;29;19933;-72
2024/01/10 10:06:43;;;;;;;;;;;-2.90;99.90;;;;;;4956416;29;20025;-72
2024/01/10 10:09:11;;;;;;;;;;;-2.90;99.90;;;;;;4956291;28;19926;-72
2024/01/10 10:11:37;;;;;;;;;;;-2.80;99.90;;;;;;4956234;29;19926;-72
2024/01/10 10:14:17;;;;;;;;;;;-2.90;99.90;;;;;;4955993;29;19934;-72
2024/01/10 10:16:43;;;;;;;;;;;-2.70;99.90;;;;;;4955959;29;19933;-72
2024/01/10 10:19:11;;;;;;;;;;;-2.60;99.90;;;;;;4955867;28;19949;-72
2024/01/10 10:21:38;;;;;;;;;;;-2.50;99.90;;;;;;4955639;29;19926;-72
2024/01/10 10:24:05;;;;;;;;;;;-2.30;99.90;;;;;;4955892;29;20439;-73
2024/01/10 10:26:34;;;;;;;;;;;-2.20;99.90;;;;;;4957847;29;19926;-72
2024/01/10 10:29:01;;;;;;;;;;;-2.00;99.90;;;;;;4957754;28;19926;-72
2024/01/10 10:31:28;;;;;;;;;;;-2.00;99.90;;;;;;4957716;29;19926;-72
2024/01/10 10:33:55;;;;;;;;;;;-2.00;99.90;;;;;;4957767;29;19926;-72
2024/01/10 10:36:22;;;;;;;;;;;-1.90;99.90;;;;;;4956556;29;19952;-72
2024/01/10 10:38:49;;;;;;;;;;;-1.90;99.90;;;;;;4956776;28;19934;-72
2024/01/10 10:41:15;;;;;;;;;;;-2.00;99.90;;;;;;4956193;28;19978;-72
2024/01/10 10:43:43;;;;;;;;;;;-1.90;99.90;;;;;;4956295;29;19927;-73
2024/01/10 10:46:12;;;;;;;;;;;-1.90;99.90;;;;;;4956495;29;19933;-73
2024/01/10 10:48:39;;;;;;;;;;;-1.70;99.90;;;;;;4956422;28;19930;-73
2024/01/10 10:51:07;;;;;;;;;;;-1.70;99.90;;;;;;4956665;29;19926;-72
2024/01/10 10:53:35;;;;;;;;;;;-1.60;99.90;;;;;;4956311;29;19927;-73
2024/01/10 10:56:03;;;;;;;;;;;-1.40;99.90;;;;;;4955818;29;19927;-73
2024/01/10 10:58:31;;;;;;;;;;;-1.30;99.90;;;;;;4955673;28;20284;-73
2024/01/10 11:01:00;;;;;;;;;;;-1.20;99.90;;;;;;4955452;29;20372;-73
2024/01/10 11:03:29;;;;;;;;;;;-1.20;99.90;;;;;;4955515;29;19926;-73
2024/01/10 11:05:55;;;;;;;;;;;-1.20;99.90;;;;;;4955779;28;19926;-73
2024/01/10 11:08:23;;;;;;;;;;;-1.20;99.90;;;;;;4955574;28;19933;-73
2024/01/10 11:10:50;;;;;;;;;;;-1.10;99.90;;;;;;4955688;28;19926;-73
2024/01/10 11:13:26;;;;;;;;;;;-1.10;99.90;;;;;;4959837;29;19927;-74
2024/01/10 11:16:00;;;;;;;;;;;-1.20;99.90;;;;;;4959330;29;19927;-74
2024/01/10 11:18:46;;;;;;;;;;;-1.10;99.90;;;;;;4959132;28;19930;-74
2024/01/10 11:21:20;;;;;;;;;;;-1.00;99.90;;;;;;4958859;29;20388;-74
2024/01/10 11:23:48;;;;;;;;;;;-0.80;99.90;;;;;;4959018;29;19935;-71
2024/01/10 11:26:15;;;;;;;;;;;-0.80;99.90;;;;;;4958720;29;20396;-73
2024/01/10 11:28:42;;;;;;;;;;;-0.70;99.90;;;;;;4958897;28;19934;-74
2024/01/10 11:31:09;;;;;;;;;;;-0.60;99.90;;;;;;4958832;29;19933;-73
2024/01/10 11:33:39;;;;;;;;;;;-0.60;99.90;;;;;;4958737;29;19933;-72
2024/01/10 11:36:24;;;;;;;;;;;-0.50;99.90;;;;;;4959416;29;19926;-73
2024/01/10 11:38:56;;;;;;;;;;;-0.40;99.90;;;;;;4958811;28;19977;-72
2024/01/10 11:41:23;;;;;;;;;;;-0.40;99.90;;;;;;4958645;29;19974;-72
2024/01/10 11:44:08;;;;;;;;;;;-0.40;99.90;;;;;;4958318;29;20387;-72
2024/01/10 11:46:35;;;;;;;;;;;-0.50;99.90;;;;;;4958336;29;19926;-72
2024/01/10 11:49:01;;;;;;;;;;;-0.40;99.90;;;;;;4958494;28;19934;-72
2024/01/10 11:51:28;;;;;;;;;;;-0.30;99.90;;;;;;4958398;29;20337;-72
2024/01/10 11:53:56;;;;;;;;;;;-0.30;99.90;;;;;;4959399;29;19926;-72
2024/01/10 11:56:23;;;;;;;;;;;-0.40;99.90;;;;;;4961727;29;19927;-72
2024/01/10 11:58:52;;;;;;;;;;;-0.50;99.90;;;;;;4961169;28;19927;-72
2024/01/10 12:01:18;;;;;;;;;;;-0.40;99.90;;;;;;4961330;29;19974;-71
2024/01/10 12:03:45;;;;;;;;;;;-0.20;99.90;;;;;;4961405;29;19933;-73
2024/01/10 12:06:12;;;;;;;;;;;-0.20;99.90;;;;;;4960688;29;19927;-73
2024/01/10 12:08:39;;;;;;;;;;;-0.10;99.90;;;;;;4960875;28;19927;-72
2024/01/10 12:11:06;;;;;;;;;;;0.00;99.90;;;;;;4960972;29;19933;-73
2024/01/10 12:13:33;;;;;;;;;;;0.00;99.90;;;;;;4960284;29;20418;-72
2024/01/10 12:16:00;;;;;;;;;;;0.00;99.90;;;;;;4960866;29;19974;-72
2024/01/10 12:18:27;;;;;;;;;;;0.00;99.90;;;;;;4960828;28;19934;-72
2024/01/10 12:20:53;;;;;;;;;;;0.00;99.90;;;;;;4960786;29;19934;-73
2024/01/10 12:23:20;;;;;;;;;;;0.10;99.90;;;;;;4960118;28;19933;-73
2024/01/10 12:25:47;;;;;;;;;;;0.10;99.90;;;;;;4958102;29;20307;-73
2024/01/10 12:28:17;;;;;;;;;;;0.10;99.90;;;;;;4957326;28;19977;-72
2024/01/10 12:30:44;;;;;;;;;;;0.10;99.90;;;;;;4957409;29;20291;-72
2024/01/10 12:33:10;;;;;;;;;;;0.10;99.90;;;;;;4957723;29;19934;-73
2024/01/10 12:35:41;;;;;;;;;;;0.20;99.90;;;;;;4957336;29;20317;-73
2024/01/10 12:38:08;;;;;;;;;;;0.20;99.90;;;;;;4957502;28;19993;-72
2024/01/10 12:40:34;;;;;;;;;;;0.10;99.90;;;;;;4957502;29;19927;-73
2024/01/10 12:43:04;;;;;;;;;;;0.10;99.90;;;;;;4957392;29;19927;-73
2024/01/10 12:45:32;;;;;;;;;;;0.00;99.90;;;;;;4957396;29;19934;-73
2024/01/10 12:47:58;;;;;;;;;;;0.00;99.90;;;;;;4957348;28;19927;-72
2024/01/10 12:50:25;;;;;;;;;;;-0.20;99.90;;;;;;4957468;29;19926;-73
2024/01/10 12:52:52;;;;;;;;;;;-0.20;99.90;;;;;;4957360;28;19962;-73
2024/01/10 12:55:18;;;;;;;;;;;-0.30;99.90;;;;;;4956884;29;20407;-73
2024/01/10 12:57:45;;;;;;;;;;;-0.30;99.90;;;;;;4957493;28;19922;-72
2024/01/10 13:00:13;;;;;;;;;;;-0.30;99.90;;;;;;4956808;29;19927;-73
2024/01/10 13:02:41;;;;;;;;;;;-0.30;99.90;;;;;;4957249;29;19949;-73
2024/01/10 13:05:09;;;;;;;;;;;-0.30;99.90;;;;;;4957139;29;19926;-73
2024/01/10 13:07:35;;;;;;;;;;;-0.20;99.90;;;;;;4956949;28;20365;-72
2024/01/10 13:10:02;;;;;;;;;;;-0.20;99.90;;;;;;4957052;29;19933;-73
2024/01/10 13:12:29;;;;;;;;;;;-0.20;99.90;;;;;;4957030;29;19927;-73
2024/01/10 13:14:55;;;;;;;;;;;-0.10;99.90;;;;;;4956710;29;19926;-73
2024/01/10 13:17:22;;;;;;;;;;;-0.10;99.90;;;;;;4957579;29;19933;-74
2024/01/10 13:19:51;;;;;;;;;;;-0.10;99.90;;;;;;4957881;28;19989;-71
2024/01/10 13:22:19;;;;;;;;;;;-0.20;99.90;;;;;;4958089;29;19931;-71
2024/01/10 13:24:47;;;;;;;;;;;-0.10;99.90;;;;;;4957108;29;19933;-71
2024/01/10 13:27:13;;;;;;;;;;;-0.10;99.90;;;;;;4956910;29;19926;-71
2024/01/10 13:29:40;;;;;;;;;;;-0.10;99.90;;;;;;4956646;28;19927;-71
2024/01/10 13:32:10;;;;;;;;;;;0.00;99.90;;;;;;4957146;29;20427;-71
2024/01/10 13:34:37;;;;;;;;;;;-0.10;99.90;;;;;;4956704;28;19927;-71
2024/01/10 13:37:10;;;;;;;;;;;0.00;99.90;;;;;;4957041;29;19927;-72
2024/01/10 13:39:37;;;;;;;;;;;0.10;99.90;;;;;;4957118;28;19934;-72
2024/01/10 13:42:03;;;;;;;;;;;0.10;99.90;;;;;;4956465;29;19963;-72
2024/01/10 13:44:30;;;;;;;;;;;0.10;99.90;;;;;;4956426;29;19926;-72
2024/01/10 13:46:57;;;;;;;;;;;0.20;99.90;;;;;;4956492;29;19926;-72
2024/01/10 13:49:23;;;;;;;;;;;0.20;99.90;;;;;;4956433;28;19934;-72
2024/01/10 13:51:50;;;;;;;;;;;0.20;99.90;;;;;;4955974;29;19926;-72
2024/01/10 13:54:18;;;;;;;;;;;0.20;99.90;;;;;;4955877;29;19933;-71
2024/01/10 13:56:45;;;;;;;;;;;0.10;99.90;;;;;;4956065;29;19926;-71
2024/01/10 13:59:12;;;;;;;;;;;0.10;99.90;;;;;;4955504;28;20013;-71
2024/01/10 14:01:39;;;;;;;;;;;0.00;99.90;;;;;;4956074;29;19926;-69
2024/01/10 14:04:06;;;;;;;;;;;0.00;99.90;;;;;;4956195;29;20021;-70
2024/01/10 14:06:33;;;;;;;;;;;0.00;99.90;;;;;;4955845;29;20392;-70
2024/01/10 14:09:00;;;;;;;;;;;0.00;99.90;;;;;;4955864;28;19934;-70
2024/01/10 14:11:28;;;;;;;;;;;0.00;99.90;;;;;;4955888;28;19926;-70
2024/01/10 14:13:55;;;;;;;;;;;-0.10;99.90;;;;;;4956051;29;19926;-70
2024/01/10 14:16:21;;;;;;;;;;;-0.10;99.90;;;;;;4956161;29;19926;-70
2024/01/10 14:18:48;;;;;;;;;;;-0.20;99.90;;;;;;4955707;28;20434;-71
2024/01/10 14:21:14;;;;;;;;;;;-0.20;99.90;;;;;;4955757;29;19930;-71
2024/01/10 14:23:41;;;;;;;;;;;-0.30;99.90;;;;;;4955630;29;19949;-71
2024/01/10 14:26:07;;;;;;;;;;;-0.40;99.90;;;;;;4955356;29;20411;-71
2024/01/10 14:28:35;;;;;;;;;;;-0.40;99.90;;;;;;4955564;28;19933;-71
2024/01/10 14:31:04;;;;;;;;;;;-0.50;99.90;;;;;;4958826;29;19915;-72
2024/01/10 14:33:32;;;;;;;;;;;-0.50;99.90;;;;;;4962058;29;19933;-71
2024/01/10 14:36:00;;;;;;;;;;;-0.40;99.90;;;;;;4963310;29;20299;-72
2024/01/10 14:38:27;;;;;;;;;;;-0.40;99.90;;;;;;4956300;28;19926;-69
2024/01/10 14:40:54;;;;;;;;;;;-0.40;99.90;;;;;;4956547;29;19926;-70
2024/01/10 14:43:21;;;;;;;;;;;-0.30;99.90;;;;;;4956348;29;19926;-71
2024/01/10 14:45:49;;;;;;;;;;;-0.30;99.90;;;;;;4956552;28;20439;-70
2024/01/10 14:48:16;;;;;;;;;;;-0.40;99.90;;;;;;4960356;28;19934;-69
2024/01/10 14:50:42;;;;;;;;;;;-0.40;99.90;;;;;;4959773;29;20011;-71
2024/01/10 14:53:09;;;;;;;;;;;-0.40;99.90;;;;;;4960503;29;20311;-72
2024/01/10 14:55:36;;;;;;;;;;;-0.40;99.90;;;;;;4959386;29;20330;-73
2024/01/10 14:58:02;;;;;;;;;;;-0.40;99.90;;;;;;4959644;28;19926;-72
2024/01/10 15:00:29;;;;;;;;;;;-0.40;99.90;;;;;;4959925;29;20296;-73
2024/01/10 15:02:57;;;;;;;;;;;-0.40;99.90;;;;;;4960287;29;20013;-71
2024/01/10 15:05:25;;;;;;;;;;;-0.40;99.90;;;;;;4959806;29;19973;-71
2024/01/10 15:07:52;;;;;;;;;;;-0.30;99.90;;;;;;4959354;28;19930;-71
2024/01/10 15:10:19;;;;;;;;;;;-0.50;99.90;;;;;;4959279;29;19926;-71
2024/01/10 15:12:45;;;;;;;;;;;-0.50;99.90;;;;;;4959662;29;19938;-69
2024/01/10 15:15:12;;;;;;;;;;;-0.50;99.90;;;;;;4959576;29;20021;-70
2024/01/10 15:17:51;;;;;;;;;;;-0.50;99.90;;;;;;4959425;28;19965;-69
2024/01/10 15:20:19;;;;;;;;;;;-0.50;99.90;;;;;;4959592;29;20384;-70
2024/01/10 15:22:46;;;;;;;;;;;-0.40;99.90;;;;;;4959723;29;19950;-70
2024/01/10 15:25:13;;;;;;;;;;;-0.40;99.90;;;;;;4959173;29;19926;-71
2024/01/10 15:27:39;;;;;;;;;;;-0.50;99.90;;;;;;4958910;28;19937;-74
2024/01/10 15:30:06;;;;;;;;;;;-0.50;99.90;;;;;;4958017;29;20376;-74
2024/01/10 15:32:33;;;;;;;;;;;-0.50;99.90;;;;;;4958131;29;20376;-74
2024/01/10 15:35:03;;;;;;;;;;;-0.50;99.90;;;;;;4957996;29;19931;-74
2024/01/10 15:37:31;;;;;;;;;;;-0.50;99.90;;;;;;4958427;29;19985;-73
2024/01/10 15:39:58;;;;;;;;;;;-0.60;99.90;;;;;;4958248;29;19933;-74
2024/01/10 15:42:24;;;;;;;;;;;-0.60;99.90;;;;;;4958331;28;19926;-74
2024/01/10 15:44:51;;;;;;;;;;;-0.60;99.90;;;;;;4958070;29;19934;-74
2024/01/10 15:47:17;;;;;;;;;;;-0.60;99.90;;;;;;4958035;29;19927;-73
2024/01/10 15:49:46;;;;;;;;;;;-0.60;99.90;;;;;;4958275;28;19933;-73
2024/01/10 15:52:13;;;;;;;;;;;-0.60;99.90;;;;;;4958026;29;20269;-74
2024/01/10 15:54:41;;;;;;;;;;;-0.70;99.90;;;;;;4958030;29;20455;-74
2024/01/10 15:57:07;;;;;;;;;;;-0.70;99.90;;;;;;4958008;28;19931;-73
2024/01/10 15:59:34;;;;;;;;;;;-0.70;99.90;;;;;;4957054;28;19927;-73
2024/01/10 16:02:01;;;;;;;;;;;-0.70;99.90;;;;;;4958181;29;19930;-73
2024/01/10 16:04:27;;;;;;;;;;;-0.80;99.90;;;;;;4958083;29;20356;-73
2024/01/10 16:06:54;;;;;;;;;;;-0.80;99.90;;;;;;4957758;29;20377;-73
2024/01/10 16:09:20;;;;;;;;;;;-0.90;99.90;;;;;;4957731;28;20410;-73
2024/01/10 16:11:49;;;;;;;;;;;-0.90;99.90;;;;;;4957990;29;20384;-74
2024/01/10 16:14:16;;;;;;;;;;;-0.90;99.90;;;;;;4958206;29;20384;-74
2024/01/10 16:16:43;;;;;;;;;;;-1.00;99.90;;;;;;4957704;29;19927;-74
2024/01/10 16:19:09;;;;;;;;;;;-1.10;99.90;;;;;;4957935;28;19934;-73
2024/01/10 16:21:36;;;;;;;;;;;-1.10;99.90;;;;;;4957990;29;19930;-73
2024/01/10 16:24:02;;;;;;;;;;;-1.10;99.90;;;;;;4957741;29;19930;-73
2024/01/10 16:26:29;;;;;;;;;;;-1.10;99.90;;;;;;4957869;29;19927;-73
2024/01/10 16:28:57;;;;;;;;;;;-1.20;99.90;;;;;;4957686;28;19926;-73
2024/01/10 16:31:23;;;;;;;;;;;-1.30;99.90;;;;;;4957834;29;19926;-73
2024/01/10 16:33:50;;;;;;;;;;;-1.30;99.90;;;;;;4957692;29;19949;-73
2024/01/10 16:36:16;;;;;;;;;;;-1.30;99.90;;;;;;4957635;29;19982;-73
2024/01/10 16:38:45;;;;;;;;;;;-1.30;99.90;;;;;;4957533;28;20301;-73
2024/01/10 16:41:12;;;;;;;;;;;-1.40;99.90;;;;;;4957147;29;20399;-73
2024/01/10 16:43:38;;;;;;;;;;;-1.40;99.90;;;;;;4957347;29;19926;-73
2024/01/10 16:46:07;;;;;;;;;;;-1.40;99.90;;;;;;4957817;29;20304;-75
2024/01/10 16:48:34;;;;;;;;;;;-1.40;99.90;;;;;;4957528;28;19981;-74
2024/01/10 16:51:00;;;;;;;;;;;-1.50;99.90;;;;;;4957658;29;20320;-74
2024/01/10 16:53:27;;;;;;;;;;;-1.50;99.90;;;;;;4957416;29;19927;-75
2024/01/10 16:55:54;;;;;;;;;;;-1.50;99.90;;;;;;4957312;29;19933;-74
2024/01/10 16:58:21;;;;;;;;;;;-1.50;99.90;;;;;;4957490;28;19931;-74
2024/01/10 17:00:47;;;;;;;;;;;-1.60;99.90;;;;;;4957523;29;19926;-74
2024/01/10 17:03:15;;;;;;;;;;;-1.60;99.90;;;;;;4956776;29;20328;-74
2024/01/10 17:05:42;;;;;;;;;;;-1.70;99.90;;;;;;4956847;29;20376;-74
2024/01/10 17:08:09;;;;;;;;;;;-1.70;99.90;;;;;;4961115;28;19934;-73
2024/01/10 17:10:36;;;;;;;;;;;-1.80;99.90;;;;;;4967957;28;19926;-73
2024/01/10 17:13:04;;;;;;;;;;;-1.80;99.90;;;;;;4973846;28;19938;-72
2024/01/10 17:15:30;;;;;;;;;;;-1.80;99.90;;;;;;4958043;29;19930;-72
2024/01/10 17:17:58;;;;;;;;;;;-1.90;99.90;;;;;;4956930;28;19933;-71
2024/01/10 17:20:26;;;;;;;;;;;-1.90;99.90;;;;;;4956829;29;19958;-71
2024/01/10 17:22:54;;;;;;;;;;;-1.90;99.90;;;;;;4956842;29;19973;-71
2024/01/10 17:25:22;;;;;;;;;;;-2.00;99.90;;;;;;4956519;29;20491;-71
2024/01/10 17:27:49;;;;;;;;;;;-2.10;99.90;;;;;;4956992;28;20029;-71
2024/01/10 17:30:16;;;;;;;;;;;-2.20;99.90;;;;;;4957048;29;19953;-71
2024/01/10 17:32:42;;;;;;;;;;;-2.20;99.90;;;;;;4956856;29;19950;-71
2024/01/10 17:35:09;;;;;;;;;;;-2.30;99.90;;;;;;4956733;29;19932;-71
2024/01/10 17:37:37;;;;;;;;;;;-2.40;99.90;;;;;;4956514;28;19938;-72
2024/01/10 17:40:04;;;;;;;;;;;-2.40;99.90;;;;;;4956598;29;19926;-72
2024/01/10 17:42:31;;;;;;;;;;;-2.40;99.90;;;;;;4956651;29;19931;-72
2024/01/10 17:44:57;;;;;;;;;;;-2.40;99.90;;;;;;4956572;29;19930;-72
2024/01/10 17:47:24;;;;;;;;;;;-2.40;99.90;;;;;;4956913;29;19950;-72
2024/01/10 17:49:50;;;;;;;;;;;-2.40;99.90;;;;;;4956449;28;20296;-72
2024/01/10 17:52:17;;;;;;;;;;;-2.40;99.90;;;;;;4956183;29;20304;-72
2024/01/10 17:54:46;;;;;;;;;;;-2.40;99.90;;;;;;4956085;29;20415;-72
2024/01/10 17:57:12;;;;;;;;;;;-2.40;99.90;;;;;;4956375;29;19966;-72
2024/01/10 17:59:39;;;;;;;;;;;-2.40;99.90;;;;;;4956010;28;19934;-72
2024/01/10 18:02:06;;;;;;;;;;;-2.40;99.90;;;;;;4956150;29;19926;-72
2024/01/10 18:04:33;;;;;;;;;;;-2.40;99.90;;;;;;4955770;29;20303;-72
2024/01/10 18:06:59;;;;;;;;;;;-2.50;99.90;;;;;;4956150;29;19949;-72
2024/01/10 18:09:26;;;;;;;;;;;-2.40;99.90;;;;;;4955768;28;20281;-72
2024/01/10 18:11:55;;;;;;;;;;;-2.50;99.90;;;;;;4955914;29;20327;-72
2024/01/10 18:14:21;;;;;;;;;;;-2.40;99.90;;;;;;4956225;29;19931;-72
2024/01/10 18:16:49;;;;;;;;;;;-2.40;99.90;;;;;;4956288;29;19927;-72
2024/01/10 18:19:16;;;;;;;;;;;-2.50;99.90;;;;;;4955862;28;19927;-72
2024/01/10 18:21:42;;;;;;;;;;;-2.50;99.90;;;;;;4956591;29;19927;-72
2024/01/10 18:24:09;;;;;;;;;;;-2.50;99.90;;;;;;4955811;29;19926;-72
2024/01/10 18:26:35;;;;;;;;;;;-2.50;99.90;;;;;;4955629;29;20296;-72
2024/01/10 18:29:03;;;;;;;;;;;-2.50;99.90;;;;;;4955843;28;20292;-72
2024/01/10 18:31:30;;;;;;;;;;;-2.50;99.90;;;;;;4956284;29;19926;-72
2024/01/10 18:33:56;;;;;;;;;;;-2.50;99.90;;;;;;4956057;29;19927;-72
2024/01/10 18:36:23;;;;;;;;;;;-2.50;99.90;;;;;;4955681;29;19933;-72
2024/01/10 18:38:50;;;;;;;;;;;-2.50;99.90;;;;;;4955742;28;19934;-72
2024/01/10 18:41:16;;;;;;;;;;;-2.50;99.90;;;;;;4957511;29;19933;-74
2024/01/10 18:43:43;;;;;;;;;;;-2.60;99.90;;;;;;4957955;29;19927;-72
2024/01/10 18:46:11;;;;;;;;;;;-2.60;99.90;;;;;;4956994;29;19934;-73
2024/01/10 18:48:38;;;;;;;;;;;-2.60;99.90;;;;;;4956893;28;20392;-72
2024/01/10 18:51:05;;;;;;;;;;;-2.60;99.90;;;;;;4958620;29;19926;-72
2024/01/10 18:53:34;;;;;;;;;;;-2.60;99.90;;;;;;4958700;29;19934;-72
2024/01/10 18:56:00;;;;;;;;;;;-2.60;99.90;;;;;;4958724;29;19926;-72
2024/01/10 18:58:27;;;;;;;;;;;-2.70;99.90;;;;;;4959097;28;19933;-73
2024/01/10 19:00:54;;;;;;;;;;;-2.70;99.90;;;;;;4958710;29;20293;-73
2024/01/10 19:03:21;;;;;;;;;;;-2.70;99.90;;;;;;4958766;29;19927;-72
2024/01/10 19:05:48;;;;;;;;;;;-2.70;99.90;;;;;;4958558;29;19927;-73
2024/01/10 19:08:15;;;;;;;;;;;-2.70;99.90;;;;;;4959144;28;19927;-73
2024/01/10 19:10:41;;;;;;;;;;;-2.80;99.90;;;;;;4959060;29;19926;-73
2024/01/10 19:13:08;;;;;;;;;;;-2.80;99.90;;;;;;4958757;29;19927;-73
2024/01/10 19:15:34;;;;;;;;;;;-2.80;99.90;;;;;;4959161;29;19927;-74
2024/01/10 19:18:01;;;;;;;;;;;-2.90;99.90;;;;;;4959054;28;19934;-74